sensor_id;sensor_type;location;lat;lon;timestamp;pressure;altitude;pressure_sealevel;temperature;humidity
818;BME280;391;51.052;6.954;2023-06-22T00:01:45;101115.75;;;23.25;59.43
818;BME280;391;51.052;6.954;2023-06-22T00:03:49;101084.16;;;23.06;59.46
818;BME280;391;51.052;6.954;2023-06-22T00:05:52;101117.44;;;23.30;58.69
818;BME280;391;51.052;6.954;2023-06-22T00:08:01;101115.09;;;23.10;59.28
818;BME280;391;51.052;6.954;2023-06-22T00:10:06;101122.09;;;23.17;59.20
818;BME280;391;51.052;6.954;2023-06-22T00:12:10;101113.25;;;23.15;59.07
818;BME280;391;51.052;6.954;2023-06-22T00:14:13;101118.78;;;23.02;59.48
818;BME280;391;51.052;6.954;2023-06-22T00:16:16;101115.34;;;22.97;59.69
818;BME280;391;51.052;6.954;2023-06-22T00:18:20;101109.78;;;23.10;59.30
818;BME280;391;51.052;6.954;2023-06-22T00:20:23;101113.38;;;23.08;59.55
818;BME280;391;51.052;6.954;2023-06-22T00:22:30;101032.06;;;22.93;58.54
818;BME280;391;51.052;6.954;2023-06-22T00:24:35;101108.94;;;23.10;59.15
818;BME280;391;51.052;6.954;2023-06-22T00:26:38;101114.97;;;23.19;58.98
818;BME280;391;51.052;6.954;2023-06-22T00:28:44;101110.31;;;23.31;58.45
818;BME280;391;51.052;6.954;2023-06-22T00:30:48;101126.47;;;23.20;58.98
818;BME280;391;51.052;6.954;2023-06-22T00:32:53;101120.41;;;23.10;59.05
818;BME280;391;51.052;6.954;2023-06-22T00:34:56;101125.50;;;23.26;58.83
818;BME280;391;51.052;6.954;2023-06-22T00:37:00;101126.63;;;23.12;58.84
818;BME280;391;51.052;6.954;2023-06-22T00:39:03;101113.22;;;23.17;58.78
818;BME280;391;51.052;6.954;2023-06-22T00:41:09;101122.97;;;23.19;58.58
818;BME280;391;51.052;6.954;2023-06-22T00:43:12;101126.66;;;23.09;59.05
818;BME280;391;51.052;6.954;2023-06-22T00:45:16;101117.16;;;22.93;59.95
818;BME280;391;51.052;6.954;2023-06-22T00:47:19;101115.50;;;22.88;60.02
818;BME280;391;51.052;6.954;2023-06-22T00:49:23;101114.47;;;22.95;60.37
818;BME280;391;51.052;6.954;2023-06-22T00:51:27;101118.09;;;22.89;59.82
818;BME280;391;51.052;6.954;2023-06-22T00:53:31;101115.44;;;22.91;59.90
818;BME280;391;51.052;6.954;2023-06-22T00:55:38;101117.28;;;22.86;60.08
818;BME280;391;51.052;6.954;2023-06-22T00:57:47;101111.16;;;22.81;59.70
818;BME280;391;51.052;6.954;2023-06-22T00:59:50;101120.88;;;22.83;60.13
818;BME280;391;51.052;6.954;2023-06-22T01:01:54;101117.16;;;22.93;59.83
818;BME280;391;51.052;6.954;2023-06-22T01:04:00;101119.63;;;23.05;59.60
818;BME280;391;51.052;6.954;2023-06-22T01:06:08;101115.97;;;23.12;59.57
818;BME280;391;51.052;6.954;2023-06-22T01:08:23;101092.50;;;22.82;59.90
818;BME280;391;51.052;6.954;2023-06-22T01:10:37;101113.69;;;22.90;59.71
818;BME280;391;51.052;6.954;2023-06-22T01:12:48;101114.63;;;22.87;60.21
818;BME280;391;51.052;6.954;2023-06-22T01:14:58;101115.41;;;22.92;60.09
818;BME280;391;51.052;6.954;2023-06-22T01:17:05;101118.31;;;22.77;60.65
818;BME280;391;51.052;6.954;2023-06-22T01:19:24;101111.06;;;22.87;60.35
818;BME280;391;51.052;6.954;2023-06-22T01:21:32;101114.53;;;22.92;60.07
818;BME280;391;51.052;6.954;2023-06-22T01:23:50;101081.22;;;22.66;60.45
818;BME280;391;51.052;6.954;2023-06-22T01:26:01;101103.28;;;22.75;60.42
818;BME280;391;51.052;6.954;2023-06-22T01:28:20;101101.56;;;22.71;60.86
818;BME280;391;51.052;6.954;2023-06-22T01:30:28;101096.41;;;22.58;60.86
818;BME280;391;51.052;6.954;2023-06-22T01:32:35;101095.63;;;22.50;60.92
818;BME280;391;51.052;6.954;2023-06-22T01:34:40;101090.34;;;22.49;61.26
818;BME280;391;51.052;6.954;2023-06-22T01:36:44;101086.66;;;22.59;61.19
818;BME280;391;51.052;6.954;2023-06-22T01:38:49;101086.75;;;22.51;61.01
818;BME280;391;51.052;6.954;2023-06-22T01:40:54;101083.31;;;22.45;61.45
818;BME280;391;51.052;6.954;2023-06-22T01:42:59;101075.50;;;22.33;61.63
818;BME280;391;51.052;6.954;2023-06-22T01:45:04;101081.63;;;22.38;61.46
818;BME280;391;51.052;6.954;2023-06-22T01:47:10;101077.28;;;22.32;61.55
818;BME280;391;51.052;6.954;2023-06-22T01:49:18;101077.97;;;22.45;61.04
818;BME280;391;51.052;6.954;2023-06-22T01:51:21;101075.41;;;22.37;61.29
818;BME280;391;51.052;6.954;2023-06-22T01:53:25;101080.94;;;22.24;61.61
818;BME280;391;51.052;6.954;2023-06-22T01:55:28;101071.16;;;22.24;61.48
818;BME280;391;51.052;6.954;2023-06-22T01:57:32;101065.81;;;22.30;61.76
818;BME280;391;51.052;6.954;2023-06-22T01:59:41;101065.94;;;22.20;61.64
818;BME280;391;51.052;6.954;2023-06-22T02:01:50;101065.06;;;22.19;62.05
818;BME280;391;51.052;6.954;2023-06-22T02:04:03;101066.03;;;22.13;61.93
818;BME280;391;51.052;6.954;2023-06-22T02:06:17;101053.72;;;22.05;62.30
818;BME280;391;51.052;6.954;2023-06-22T02:08:25;101062.56;;;22.05;62.70
818;BME280;391;51.052;6.954;2023-06-22T02:10:31;101034.44;;;21.89;62.36
818;BME280;391;51.052;6.954;2023-06-22T02:12:36;101060.94;;;21.97;62.85
818;BME280;391;51.052;6.954;2023-06-22T02:14:40;101058.19;;;22.04;62.61
818;BME280;391;51.052;6.954;2023-06-22T02:16:44;101061.69;;;22.08;62.67
818;BME280;391;51.052;6.954;2023-06-22T02:18:50;101057.28;;;22.04;62.69
818;BME280;391;51.052;6.954;2023-06-22T02:20:55;101030.16;;;21.78;63.01
818;BME280;391;51.052;6.954;2023-06-22T02:22:59;101063.66;;;21.91;63.37
818;BME280;391;51.052;6.954;2023-06-22T02:25:03;101063.63;;;21.92;63.27
818;BME280;391;51.052;6.954;2023-06-22T02:27:06;101068.09;;;21.92;62.90
818;BME280;391;51.052;6.954;2023-06-22T02:29:10;101067.13;;;21.96;62.85
818;BME280;391;51.052;6.954;2023-06-22T02:31:14;101058.34;;;21.89;63.39
818;BME280;391;51.052;6.954;2023-06-22T02:33:18;101063.66;;;21.86;63.32
818;BME280;391;51.052;6.954;2023-06-22T02:35:21;101054.81;;;21.87;63.21
818;BME280;391;51.052;6.954;2023-06-22T02:37:28;101055.69;;;21.86;63.06
818;BME280;391;51.052;6.954;2023-06-22T02:39:31;101053.03;;;21.89;62.95
818;BME280;391;51.052;6.954;2023-06-22T02:41:35;101048.63;;;21.87;63.44
818;BME280;391;51.052;6.954;2023-06-22T02:43:38;101043.34;;;21.84;63.07
818;BME280;391;51.052;6.954;2023-06-22T02:45:42;101048.63;;;21.88;62.78
818;BME280;391;51.052;6.954;2023-06-22T02:47:46;101046.84;;;21.86;62.93
818;BME280;391;51.052;6.954;2023-06-22T02:49:52;101047.66;;;21.97;62.47
818;BME280;391;51.052;6.954;2023-06-22T02:51:57;101042.44;;;21.86;62.39
818;BME280;391;51.052;6.954;2023-06-22T02:54:03;101035.34;;;21.90;62.55
818;BME280;391;51.052;6.954;2023-06-22T02:56:06;101033.56;;;21.90;62.53
818;BME280;391;51.052;6.954;2023-06-22T02:58:12;101025.59;;;21.92;62.11
818;BME280;391;51.052;6.954;2023-06-22T03:00:16;101031.78;;;21.89;62.22
818;BME280;391;51.052;6.954;2023-06-22T03:02:21;101030.03;;;21.90;62.31
818;BME280;391;51.052;6.954;2023-06-22T03:04:25;101020.28;;;21.87;62.14
818;BME280;391;51.052;6.954;2023-06-22T03:06:28;101021.19;;;21.89;62.48
818;BME280;391;51.052;6.954;2023-06-22T03:08:32;101020.19;;;21.96;62.27
818;BME280;391;51.052;6.954;2023-06-22T03:10:37;101017.63;;;21.90;62.17
818;BME280;391;51.052;6.954;2023-06-22T03:12:42;100983.44;;;21.63;62.23
818;BME280;391;51.052;6.954;2023-06-22T03:14:46;101008.91;;;21.78;62.65
818;BME280;391;51.052;6.954;2023-06-22T03:16:50;101012.50;;;21.75;62.73
818;BME280;391;51.052;6.954;2023-06-22T03:18:54;101016.00;;;21.77;62.80
818;BME280;391;51.052;6.954;2023-06-22T03:20:57;101012.50;;;21.75;62.88
818;BME280;391;51.052;6.954;2023-06-22T03:23:00;101009.66;;;21.92;62.37
818;BME280;391;51.052;6.954;2023-06-22T03:25:05;100998.06;;;21.97;61.87
818;BME280;391;51.052;6.954;2023-06-22T03:27:15;101013.75;;;22.15;61.25
818;BME280;391;51.052;6.954;2023-06-22T03:29:19;101008.63;;;22.02;61.92
818;BME280;391;51.052;6.954;2023-06-22T03:31:22;101018.38;;;22.00;62.16
818;BME280;391;51.052;6.954;2023-06-22T03:33:27;101013.22;;;21.88;62.53
818;BME280;391;51.052;6.954;2023-06-22T03:35:33;101005.91;;;22.06;62.11
818;BME280;391;51.052;6.954;2023-06-22T03:37:36;101004.94;;;22.13;61.85
818;BME280;391;51.052;6.954;2023-06-22T03:39:40;101003.19;;;22.11;61.71
818;BME280;391;51.052;6.954;2023-06-22T03:41:44;100999.03;;;22.50;61.66
818;BME280;391;51.052;6.954;2023-06-22T03:43:49;101004.59;;;22.36;61.04
818;BME280;391;51.052;6.954;2023-06-22T03:45:52;100995.28;;;22.06;62.16
818;BME280;391;51.052;6.954;2023-06-22T03:47:57;100999.94;;;21.89;63.12
818;BME280;391;51.052;6.954;2023-06-22T03:50:00;101006.25;;;21.76;63.90
818;BME280;391;51.052;6.954;2023-06-22T03:52:06;101008.03;;;21.79;63.94
818;BME280;391;51.052;6.954;2023-06-22T03:54:09;101006.97;;;21.95;63.66
818;BME280;391;51.052;6.954;2023-06-22T03:56:13;100998.03;;;22.00;64.02
818;BME280;391;51.052;6.954;2023-06-22T03:58:22;100981.16;;;22.03;63.42
818;BME280;391;51.052;6.954;2023-06-22T04:00:27;100997.75;;;22.19;62.36
818;BME280;391;51.052;6.954;2023-06-22T04:02:30;101000.28;;;22.28;62.43
818;BME280;391;51.052;6.954;2023-06-22T04:04:34;101000.19;;;22.34;60.92
818;BME280;391;51.052;6.954;2023-06-22T04:06:37;101001.50;;;22.05;62.23
818;BME280;391;51.052;6.954;2023-06-22T04:08:41;100998.81;;;22.07;62.43
818;BME280;391;51.052;6.954;2023-06-22T04:10:44;100999.00;;;21.93;62.00
818;BME280;391;51.052;6.954;2023-06-22T04:12:48;100999.03;;;21.90;62.33
818;BME280;391;51.052;6.954;2023-06-22T04:14:56;100991.97;;;21.89;62.25
818;BME280;391;51.052;6.954;2023-06-22T04:17:07;100999.63;;;22.13;62.55
818;BME280;391;51.052;6.954;2023-06-22T04:19:15;100991.41;;;22.29;61.77
818;BME280;391;51.052;6.954;2023-06-22T04:21:20;100990.53;;;22.30;61.32
818;BME280;391;51.052;6.954;2023-06-22T04:23:24;100995.97;;;22.21;62.34
818;BME280;391;51.052;6.954;2023-06-22T04:25:27;100995.09;;;22.20;61.88
818;BME280;391;51.052;6.954;2023-06-22T04:27:31;100994.16;;;22.23;61.55
818;BME280;391;51.052;6.954;2023-06-22T04:29:34;100999.38;;;22.29;60.95
818;BME280;391;51.052;6.954;2023-06-22T04:31:38;101005.50;;;22.34;61.88
818;BME280;391;51.052;6.954;2023-06-22T04:33:43;101006.41;;;22.33;60.75
818;BME280;391;51.052;6.954;2023-06-22T04:35:46;101003.25;;;22.06;61.50
818;BME280;391;51.052;6.954;2023-06-22T04:37:50;101005.06;;;22.03;61.87
818;BME280;391;51.052;6.954;2023-06-22T04:39:56;101002.31;;;22.09;61.68
818;BME280;391;51.052;6.954;2023-06-22T04:42:00;101009.44;;;22.07;61.53
818;BME280;391;51.052;6.954;2023-06-22T04:44:04;101012.19;;;22.01;61.64
818;BME280;391;51.052;6.954;2023-06-22T04:46:07;101004.28;;;21.98;61.93
818;BME280;391;51.052;6.954;2023-06-22T04:48:11;101007.72;;;22.03;61.27
818;BME280;391;51.052;6.954;2023-06-22T04:50:20;100999.84;;;21.98;62.08
818;BME280;391;51.052;6.954;2023-06-22T04:52:24;100999.63;;;22.12;61.87
818;BME280;391;51.052;6.954;2023-06-22T04:54:27;101006.03;;;21.97;62.34
818;BME280;391;51.052;6.954;2023-06-22T04:56:31;101005.16;;;21.95;62.46
818;BME280;391;51.052;6.954;2023-06-22T04:58:34;100999.78;;;22.01;63.03
818;BME280;391;51.052;6.954;2023-06-22T05:00:38;101004.28;;;21.98;62.85
818;BME280;391;51.052;6.954;2023-06-22T05:02:42;101013.13;;;21.97;62.57
818;BME280;391;51.052;6.954;2023-06-22T05:04:46;101013.13;;;21.98;63.23
818;BME280;391;51.052;6.954;2023-06-22T05:06:55;101012.25;;;21.96;62.76
818;BME280;391;51.052;6.954;2023-06-22T05:08:58;100991.94;;;21.92;62.93
818;BME280;391;51.052;6.954;2023-06-22T05:11:02;101008.50;;;22.11;62.52
818;BME280;391;51.052;6.954;2023-06-22T05:13:07;101001.44;;;22.08;63.14
818;BME280;391;51.052;6.954;2023-06-22T05:15:10;100999.66;;;22.10;63.28
818;BME280;391;51.052;6.954;2023-06-22T05:17:14;101005.59;;;22.29;63.01
818;BME280;391;51.052;6.954;2023-06-22T05:19:21;101001.28;;;22.19;62.83
818;BME280;391;51.052;6.954;2023-06-22T05:21:26;101004.00;;;22.14;63.47
818;BME280;391;51.052;6.954;2023-06-22T05:23:31;100999.56;;;22.17;64.02
818;BME280;391;51.052;6.954;2023-06-22T05:25:35;101000.47;;;22.15;63.22
818;BME280;391;51.052;6.954;2023-06-22T05:27:38;101000.41;;;22.20;63.41
818;BME280;391;51.052;6.954;2023-06-22T05:29:42;100998.53;;;22.25;63.36
818;BME280;391;51.052;6.954;2023-06-22T05:31:46;100994.22;;;22.20;63.43
818;BME280;391;51.052;6.954;2023-06-22T05:33:51;100999.47;;;22.23;63.61
818;BME280;391;51.052;6.954;2023-06-22T05:35:55;100998.19;;;22.49;63.04
818;BME280;391;51.052;6.954;2023-06-22T05:37:58;100996.53;;;22.41;63.46
818;BME280;391;51.052;6.954;2023-06-22T05:40:04;101004.72;;;23.33;62.54
818;BME280;391;51.052;6.954;2023-06-22T05:42:09;101006.41;;;23.38;62.15
818;BME280;391;51.052;6.954;2023-06-22T05:44:13;101003.16;;;23.23;62.82
818;BME280;391;51.052;6.954;2023-06-22T05:46:17;101000.88;;;23.01;61.19
818;BME280;391;51.052;6.954;2023-06-22T05:48:20;100998.03;;;22.58;63.05
818;BME280;391;51.052;6.954;2023-06-22T05:50:24;100998.31;;;22.42;64.59
818;BME280;391;51.052;6.954;2023-06-22T05:52:27;101000.66;;;22.61;66.25
818;BME280;391;51.052;6.954;2023-06-22T05:54:30;101004.34;;;23.05;65.37
818;BME280;391;51.052;6.954;2023-06-22T05:56:35;100955.22;;;22.78;67.29
818;BME280;391;51.052;6.954;2023-06-22T05:58:39;101003.22;;;23.19;67.45
818;BME280;391;51.052;6.954;2023-06-22T06:00:42;100993.47;;;23.17;69.43
818;BME280;391;51.052;6.954;2023-06-22T06:02:46;100993.88;;;22.42;77.73
818;BME280;391;51.052;6.954;2023-06-22T06:04:51;100992.63;;;22.08;81.63
818;BME280;391;51.052;6.954;2023-06-22T06:06:56;101001.63;;;21.98;80.78
818;BME280;391;51.052;6.954;2023-06-22T06:09:00;101006.25;;;21.76;81.73
818;BME280;391;51.052;6.954;2023-06-22T06:11:03;101005.38;;;21.77;80.89
818;BME280;391;51.052;6.954;2023-06-22T06:13:08;101012.00;;;22.13;78.57
818;BME280;391;51.052;6.954;2023-06-22T06:15:12;101007.72;;;22.04;80.32
818;BME280;391;51.052;6.954;2023-06-22T06:17:15;101004.28;;;21.96;83.72
818;BME280;391;51.052;6.954;2023-06-22T06:19:19;101006.00;;;21.99;83.59
818;BME280;391;51.052;6.954;2023-06-22T06:21:23;101009.88;;;21.71;84.61
818;BME280;391;51.052;6.954;2023-06-22T06:23:26;101010.81;;;21.67;88.12
818;BME280;391;51.052;6.954;2023-06-22T06:25:29;101014.34;;;21.67;87.69
818;BME280;391;51.052;6.954;2023-06-22T06:27:33;101014.09;;;21.91;85.07
818;BME280;391;51.052;6.954;2023-06-22T06:29:38;101015.91;;;21.85;84.22
818;BME280;391;51.052;6.954;2023-06-22T06:31:41;100988.59;;;21.75;86.83
818;BME280;391;51.052;6.954;2023-06-22T06:33:45;101008.38;;;21.50;90.06
818;BME280;391;51.052;6.954;2023-06-22T06:35:48;101018.25;;;21.36;90.83
818;BME280;391;51.052;6.954;2023-06-22T06:37:52;100980.44;;;21.17;93.81
818;BME280;391;51.052;6.954;2023-06-22T06:39:56;101019.25;;;21.27;94.47
818;BME280;391;51.052;6.954;2023-06-22T06:41:59;101018.34;;;21.25;94.95
818;BME280;391;51.052;6.954;2023-06-22T06:44:03;101015.59;;;21.36;94.48
818;BME280;391;51.052;6.954;2023-06-22T06:46:07;101021.56;;;21.56;93.52
818;BME280;391;51.052;6.954;2023-06-22T06:48:11;101018.28;;;21.34;95.65
818;BME280;391;51.052;6.954;2023-06-22T06:50:15;100995.47;;;21.17;96.40
818;BME280;391;51.052;6.954;2023-06-22T06:52:19;101015.50;;;21.45;95.57
818;BME280;391;51.052;6.954;2023-06-22T06:54:22;101016.47;;;21.35;96.97
818;BME280;391;51.052;6.954;2023-06-22T06:56:26;101018.94;;;21.53;96.47
818;BME280;391;51.052;6.954;2023-06-22T06:58:29;101008.31;;;21.54;97.50
818;BME280;391;51.052;6.954;2023-06-22T07:00:33;101008.31;;;21.56;97.77
818;BME280;391;51.052;6.954;2023-06-22T07:02:40;101002.03;;;21.61;97.12
818;BME280;391;51.052;6.954;2023-06-22T07:04:44;100993.06;;;21.70;97.82
818;BME280;391;51.052;6.954;2023-06-22T07:06:47;101004.94;;;22.13;97.02
818;BME280;391;51.052;6.954;2023-06-22T07:08:51;101006.78;;;22.05;96.31
818;BME280;391;51.052;6.954;2023-06-22T07:10:56;100996.25;;;21.99;96.60
818;BME280;391;51.052;6.954;2023-06-22T07:13:00;100970.78;;;21.83;95.53
818;BME280;391;51.052;6.954;2023-06-22T07:15:05;100985.69;;;21.96;97.50
818;BME280;391;51.052;6.954;2023-06-22T07:17:10;100982.94;;;22.02;96.93
818;BME280;391;51.052;6.954;2023-06-22T07:19:15;100977.53;;;22.08;98.27
818;BME280;391;51.052;6.954;2023-06-22T07:21:18;100982.78;;;22.13;97.22
818;BME280;391;51.052;6.954;2023-06-22T07:23:22;100974.03;;;22.06;97.54
818;BME280;391;51.052;6.954;2023-06-22T07:25:25;100942.41;;;21.88;98.10
818;BME280;391;51.052;6.954;2023-06-22T07:27:28;100957.88;;;22.22;98.09
818;BME280;391;51.052;6.954;2023-06-22T07:29:39;100966.41;;;22.40;96.98
818;BME280;391;51.052;6.954;2023-06-22T07:31:44;100954.00;;;22.41;97.36
818;BME280;391;51.052;6.954;2023-06-22T07:33:48;100963.50;;;22.58;95.22
818;BME280;391;51.052;6.954;2023-06-22T07:35:53;100961.25;;;22.86;93.38
818;BME280;391;51.052;6.954;2023-06-22T07:37:56;100960.47;;;22.80;91.65
818;BME280;391;51.052;6.954;2023-06-22T07:40:00;100955.06;;;22.86;92.87
818;BME280;391;51.052;6.954;2023-06-22T07:42:06;100949.91;;;22.75;91.44
818;BME280;391;51.052;6.954;2023-06-22T07:44:11;100956.94;;;22.81;90.22
818;BME280;391;51.052;6.954;2023-06-22T07:46:15;100941.63;;;22.92;91.28
818;BME280;391;51.052;6.954;2023-06-22T07:48:20;100950.25;;;23.06;91.15
818;BME280;391;51.052;6.954;2023-06-22T07:50:23;100944.69;;;23.19;90.60
818;BME280;391;51.052;6.954;2023-06-22T07:52:28;100939.09;;;23.32;89.06
818;BME280;391;51.052;6.954;2023-06-22T07:54:32;100932.53;;;23.49;85.20
818;BME280;391;51.052;6.954;2023-06-22T07:56:36;100934.03;;;23.62;82.88
818;BME280;391;51.052;6.954;2023-06-22T07:58:40;100937.28;;;23.77;81.06
818;BME280;391;51.052;6.954;2023-06-22T08:00:43;100943.53;;;23.74;80.27
818;BME280;391;51.052;6.954;2023-06-22T08:02:47;100944.09;;;23.90;78.93
818;BME280;391;51.052;6.954;2023-06-22T08:04:50;100935.13;;;23.94;78.54
818;BME280;391;51.052;6.954;2023-06-22T08:06:59;100851.56;;;23.61;76.16
818;BME280;391;51.052;6.954;2023-06-22T08:09:04;100933.03;;;24.06;76.40
818;BME280;391;51.052;6.954;2023-06-22T08:11:07;100928.09;;;24.30;76.40
818;BME280;391;51.052;6.954;2023-06-22T08:13:11;100928.72;;;24.41;75.10
818;BME280;391;51.052;6.954;2023-06-22T08:15:14;100869.38;;;23.96;73.48
818;BME280;391;51.052;6.954;2023-06-22T08:17:18;100919.53;;;24.51;72.49
818;BME280;391;51.052;6.954;2023-06-22T08:19:21;100911.81;;;24.75;71.87
818;BME280;391;51.052;6.954;2023-06-22T08:21:25;100908.03;;;24.84;71.14
818;BME280;391;51.052;6.954;2023-06-22T08:23:28;100905.28;;;24.87;70.28
818;BME280;391;51.052;6.954;2023-06-22T08:25:33;100901.09;;;25.09;69.16
818;BME280;391;51.052;6.954;2023-06-22T08:27:37;100885.00;;;25.12;68.57
818;BME280;391;51.052;6.954;2023-06-22T08:29:40;100894.03;;;25.39;67.21
818;BME280;391;51.052;6.954;2023-06-22T08:31:44;100898.22;;;25.49;66.19
818;BME280;391;51.052;6.954;2023-06-22T08:33:47;100893.31;;;25.63;64.33
818;BME280;391;51.052;6.954;2023-06-22T08:35:51;100891.03;;;25.79;63.97
818;BME280;391;51.052;6.954;2023-06-22T08:37:55;100886.16;;;25.64;63.03
818;BME280;391;51.052;6.954;2023-06-22T08:40:00;100891.53;;;25.92;62.60
818;BME280;391;51.052;6.954;2023-06-22T08:42:06;100887.25;;;25.86;62.97
818;BME280;391;51.052;6.954;2023-06-22T08:44:09;100853.50;;;25.84;62.45
818;BME280;391;51.052;6.954;2023-06-22T08:46:12;100892.69;;;26.11;62.01
818;BME280;391;51.052;6.954;2023-06-22T08:48:16;100886.97;;;26.23;62.01
818;BME280;391;51.052;6.954;2023-06-22T08:50:20;100888.78;;;26.22;62.29
818;BME280;391;51.052;6.954;2023-06-22T08:52:24;100880.69;;;26.24;60.50
818;BME280;391;51.052;6.954;2023-06-22T08:54:28;100886.28;;;26.43;59.06
818;BME280;391;51.052;6.954;2023-06-22T08:56:31;100876.22;;;26.51;59.60
818;BME280;391;51.052;6.954;2023-06-22T08:58:36;100862.66;;;26.55;60.81
818;BME280;391;51.052;6.954;2023-06-22T09:00:39;100859.31;;;26.75;60.63
818;BME280;391;51.052;6.954;2023-06-22T09:02:43;100838.00;;;26.72;61.37
818;BME280;391;51.052;6.954;2023-06-22T09:04:46;100847.53;;;26.80;61.91
818;BME280;391;51.052;6.954;2023-06-22T09:06:51;100846.47;;;26.86;61.61
818;BME280;391;51.052;6.954;2023-06-22T09:08:54;100844.69;;;26.85;62.65
818;BME280;391;51.052;6.954;2023-06-22T09:10:58;100844.09;;;27.02;63.08
818;BME280;391;51.052;6.954;2023-06-22T09:13:01;100843.50;;;27.17;61.74
818;BME280;391;51.052;6.954;2023-06-22T09:15:07;100838.38;;;27.11;62.43
818;BME280;391;51.052;6.954;2023-06-22T09:17:17;100816.78;;;26.92;62.67
818;BME280;391;51.052;6.954;2023-06-22T09:19:20;100840.03;;;27.15;62.47
818;BME280;391;51.052;6.954;2023-06-22T09:21:24;100835.03;;;27.06;62.20
818;BME280;391;51.052;6.954;2023-06-22T09:23:27;100835.03;;;27.06;61.99
818;BME280;391;51.052;6.954;2023-06-22T09:25:31;100840.19;;;27.10;62.67
818;BME280;391;51.052;6.954;2023-06-22T09:27:34;100835.88;;;27.06;62.63
818;BME280;391;51.052;6.954;2023-06-22T09:29:38;100830.00;;;27.20;62.11
818;BME280;391;51.052;6.954;2023-06-22T09:31:43;100822.09;;;27.17;61.27
818;BME280;391;51.052;6.954;2023-06-22T09:33:47;100826.09;;;27.28;61.23
818;BME280;391;51.052;6.954;2023-06-22T09:35:50;100822.88;;;27.42;58.87
818;BME280;391;51.052;6.954;2023-06-22T09:37:54;100816.84;;;27.37;59.29
818;BME280;391;51.052;6.954;2023-06-22T09:39:58;100817.59;;;27.41;58.17
818;BME280;391;51.052;6.954;2023-06-22T09:42:02;100813.59;;;27.52;58.52
818;BME280;391;51.052;6.954;2023-06-22T09:44:07;100805.84;;;27.45;57.70
818;BME280;391;51.052;6.954;2023-06-22T09:46:10;100804.63;;;27.53;57.80
818;BME280;391;51.052;6.954;2023-06-22T09:48:15;100804.16;;;27.64;57.78
818;BME280;391;51.052;6.954;2023-06-22T09:50:19;100803.13;;;27.68;58.12
818;BME280;391;51.052;6.954;2023-06-22T09:52:23;100803.13;;;27.68;58.47
818;BME280;391;51.052;6.954;2023-06-22T09:54:36;100778.25;;;27.64;57.46
818;BME280;391;51.052;6.954;2023-06-22T09:56:40;100815.28;;;27.98;56.83
818;BME280;391;51.052;6.954;2023-06-22T09:58:45;100809.06;;;27.76;56.50
818;BME280;391;51.052;6.954;2023-06-22T10:00:49;100806.56;;;27.71;57.12
818;BME280;391;51.052;6.954;2023-06-22T10:02:53;100778.59;;;27.57;57.45
818;BME280;391;51.052;6.954;2023-06-22T10:05:03;100807.34;;;27.73;57.71
818;BME280;391;51.052;6.954;2023-06-22T10:07:07;100807.97;;;27.58;57.97
818;BME280;391;51.052;6.954;2023-06-22T10:09:11;100807.94;;;27.60;58.31
818;BME280;391;51.052;6.954;2023-06-22T10:11:14;100808.06;;;27.57;58.21
818;BME280;391;51.052;6.954;2023-06-22T10:13:18;100807.69;;;27.43;57.49
818;BME280;391;51.052;6.954;2023-06-22T10:15:21;100813.06;;;27.19;58.72
818;BME280;391;51.052;6.954;2023-06-22T10:17:25;100810.94;;;27.06;59.57
818;BME280;391;51.052;6.954;2023-06-22T10:19:28;100814.63;;;27.02;59.33
818;BME280;391;51.052;6.954;2023-06-22T10:21:33;100824.84;;;26.91;59.04
818;BME280;391;51.052;6.954;2023-06-22T10:23:37;100836.22;;;26.72;60.44
818;BME280;391;51.052;6.954;2023-06-22T10:25:40;100844.28;;;26.71;60.22
818;BME280;391;51.052;6.954;2023-06-22T10:27:44;100860.53;;;26.65;60.63
818;BME280;391;51.052;6.954;2023-06-22T10:29:48;100847.72;;;26.50;61.70
818;BME280;391;51.052;6.954;2023-06-22T10:31:51;100862.97;;;26.48;66.72
818;BME280;391;51.052;6.954;2023-06-22T10:33:55;100872.19;;;26.11;70.77
818;BME280;391;51.052;6.954;2023-06-22T10:35:59;100870.31;;;25.87;71.73
818;BME280;391;51.052;6.954;2023-06-22T10:38:04;100870.94;;;25.67;73.02
818;BME280;391;51.052;6.954;2023-06-22T10:40:08;100872.09;;;25.59;77.10
818;BME280;391;51.052;6.954;2023-06-22T10:42:12;100877.13;;;25.39;77.07
818;BME280;391;51.052;6.954;2023-06-22T10:44:16;100875.59;;;25.30;80.16
818;BME280;391;51.052;6.954;2023-06-22T10:46:19;100884.63;;;24.95;80.95
818;BME280;391;51.052;6.954;2023-06-22T10:48:23;100888.41;;;24.87;82.02
818;BME280;391;51.052;6.954;2023-06-22T10:50:26;100888.78;;;24.71;83.54
818;BME280;391;51.052;6.954;2023-06-22T10:52:30;100890.00;;;24.60;85.04
818;BME280;391;51.052;6.954;2023-06-22T10:54:38;100871.88;;;24.39;87.00
818;BME280;391;51.052;6.954;2023-06-22T10:56:41;100895.88;;;24.39;89.29
818;BME280;391;51.052;6.954;2023-06-22T10:58:45;100902.56;;;24.19;89.70
818;BME280;391;51.052;6.954;2023-06-22T11:00:49;100907.44;;;24.01;93.03
818;BME280;391;51.052;6.954;2023-06-22T11:02:52;100908.44;;;23.95;92.54
818;BME280;391;51.052;6.954;2023-06-22T11:04:56;100915.91;;;23.80;92.53
818;BME280;391;51.052;6.954;2023-06-22T11:07:02;100909.00;;;23.71;93.19
818;BME280;391;51.052;6.954;2023-06-22T11:09:06;100903.88;;;23.62;95.89
818;BME280;391;51.052;6.954;2023-06-22T11:11:15;100915.56;;;23.55;99.17
818;BME280;391;51.052;6.954;2023-06-22T11:13:19;100917.69;;;23.38;98.96
818;BME280;391;51.052;6.954;2023-06-22T11:15:23;100919.72;;;23.25;99.21
818;BME280;391;51.052;6.954;2023-06-22T11:17:26;100915.91;;;23.37;100.00
818;BME280;391;51.052;6.954;2023-06-22T11:19:30;100900.41;;;23.15;100.00
818;BME280;391;51.052;6.954;2023-06-22T11:21:33;100896.72;;;23.21;100.00
818;BME280;391;51.052;6.954;2023-06-22T11:23:37;100871.16;;;23.14;100.00
818;BME280;391;51.052;6.954;2023-06-22T11:25:40;100851.47;;;23.23;100.00
818;BME280;391;51.052;6.954;2023-06-22T11:27:46;100828.38;;;23.25;100.00